sensor_id;sensor_type;location;lat;lon;timestamp;temperature;humidity
33093;DHT22;19456;46.104;12.908;2023-01-24T00:01:52;7.00;99.90
33093;DHT22;19456;46.104;12.908;2023-01-24T00:04:17;7.00;99.90
33093;DHT22;19456;46.104;12.908;2023-01-24T00:06:43;7.00;99.90
33093;DHT22;19456;46.104;12.908;2023-01-24T00:09:08;7.00;99.90
33093;DHT22;19456;46.104;12.908;2023-01-24T00:11:34;7.00;99.90
33093;DHT22;19456;46.104;12.908;2023-01-24T00:14:00;7.00;99.90
33093;DHT22;19456;46.104;12.908;2023-01-24T00:16:25;7.10;99.90
33093;DHT22;19456;46.104;12.908;2023-01-24T00:18:51;7.10;99.90
33093;DHT22;19456;46.104;12.908;2023-01-24T00:21:18;7.00;99.90
33093;DHT22;19456;46.104;12.908;2023-01-24T00:23:45;7.00;99.90
33093;DHT22;19456;46.104;12.908;2023-01-24T00:26:11;7.00;99.90
33093;DHT22;19456;46.104;12.908;2023-01-24T00:28:37;7.10;99.90
33093;DHT22;19456;46.104;12.908;2023-01-24T00:31:03;7.20;99.90
33093;DHT22;19456;46.104;12.908;2023-01-24T00:33:28;7.30;99.90
33093;DHT22;19456;46.104;12.908;2023-01-24T00:35:54;7.30;99.90
33093;DHT22;19456;46.104;12.908;2023-01-24T00:38:20;7.30;99.90
33093;DHT22;19456;46.104;12.908;2023-01-24T00:40:46;7.40;99.90
33093;DHT22;19456;46.104;12.908;2023-01-24T00:43:12;7.30;99.90
33093;DHT22;19456;46.104;12.908;2023-01-24T00:45:38;7.40;99.90
33093;DHT22;19456;46.104;12.908;2023-01-24T00:48:04;7.30;99.90
33093;DHT22;19456;46.104;12.908;2023-01-24T00:50:29;7.30;99.90
33093;DHT22;19456;46.104;12.908;2023-01-24T00:52:55;7.40;99.90
33093;DHT22;19456;46.104;12.908;2023-01-24T00:55:20;7.40;99.90
33093;DHT22;19456;46.104;12.908;2023-01-24T00:57:46;7.40;99.90
33093;DHT22;19456;46.104;12.908;2023-01-24T01:00:12;7.40;99.90
33093;DHT22;19456;46.104;12.908;2023-01-24T01:02:38;7.30;99.90
33093;DHT22;19456;46.104;12.908;2023-01-24T01:05:04;7.30;99.90
33093;DHT22;19456;46.104;12.908;2023-01-24T01:07:29;7.20;99.90
33093;DHT22;19456;46.104;12.908;2023-01-24T01:09:55;7.10;99.90
33093;DHT22;19456;46.104;12.908;2023-01-24T01:12:20;6.90;99.90
33093;DHT22;19456;46.104;12.908;2023-01-24T01:14:46;6.80;99.90
33093;DHT22;19456;46.104;12.908;2023-01-24T01:17:11;6.80;99.90
33093;DHT22;19456;46.104;12.908;2023-01-24T01:19:37;6.80;99.90
33093;DHT22;19456;46.104;12.908;2023-01-24T01:22:02;6.80;99.90
33093;DHT22;19456;46.104;12.908;2023-01-24T01:24:28;6.80;99.90
33093;DHT22;19456;46.104;12.908;2023-01-24T01:26:54;6.80;99.90
33093;DHT22;19456;46.104;12.908;2023-01-24T01:29:19;6.70;99.90
33093;DHT22;19456;46.104;12.908;2023-01-24T01:31:45;6.80;99.90
33093;DHT22;19456;46.104;12.908;2023-01-24T01:34:10;6.90;99.90
33093;DHT22;19456;46.104;12.908;2023-01-24T01:36:36;6.90;99.90
33093;DHT22;19456;46.104;12.908;2023-01-24T01:39:01;6.90;99.90
33093;DHT22;19456;46.104;12.908;2023-01-24T01:41:27;6.90;99.90
33093;DHT22;19456;46.104;12.908;2023-01-24T01:43:53;6.90;99.90
33093;DHT22;19456;46.104;12.908;2023-01-24T01:46:40;7.00;99.90
33093;DHT22;19456;46.104;12.908;2023-01-24T01:49:09;7.00;99.90
33093;DHT22;19456;46.104;12.908;2023-01-24T01:51:43;7.00;99.90
33093;DHT22;19456;46.104;12.908;2023-01-24T01:54:12;7.00;99.90
33093;DHT22;19456;46.104;12.908;2023-01-24T01:56:40;7.00;99.90
33093;DHT22;19456;46.104;12.908;2023-01-24T01:59:14;7.10;99.90
33093;DHT22;19456;46.104;12.908;2023-01-24T02:01:41;7.10;99.90
33093;DHT22;19456;46.104;12.908;2023-01-24T02:04:08;7.10;99.90
33093;DHT22;19456;46.104;12.908;2023-01-24T02:09:21;6.90;99.90
33093;DHT22;19456;46.104;12.908;2023-01-24T02:11:47;6.80;99.90
33093;DHT22;19456;46.104;12.908;2023-01-24T02:14:14;6.80;99.90
33093;DHT22;19456;46.104;12.908;2023-01-24T02:17:00;6.80;99.90
33093;DHT22;19456;46.104;12.908;2023-01-24T02:19:41;6.80;99.90
33093;DHT22;19456;46.104;12.908;2023-01-24T02:24:52;6.60;99.90
33093;DHT22;19456;46.104;12.908;2023-01-24T02:27:21;6.60;99.90
33093;DHT22;19456;46.104;12.908;2023-01-24T02:29:46;6.60;99.90
33093;DHT22;19456;46.104;12.908;2023-01-24T02:32:12;6.60;99.90
33093;DHT22;19456;46.104;12.908;2023-01-24T02:34:40;6.70;99.90
33093;DHT22;19456;46.104;12.908;2023-01-24T02:37:07;6.70;99.90
33093;DHT22;19456;46.104;12.908;2023-01-24T02:39:35;6.60;99.90
33093;DHT22;19456;46.104;12.908;2023-01-24T02:42:05;6.60;99.90
33093;DHT22;19456;46.104;12.908;2023-01-24T02:44:33;6.60;99.90
33093;DHT22;19456;46.104;12.908;2023-01-24T02:47:01;6.50;99.90
33093;DHT22;19456;46.104;12.908;2023-01-24T02:49:27;6.60;99.90
33093;DHT22;19456;46.104;12.908;2023-01-24T02:51:52;6.60;99.90
33093;DHT22;19456;46.104;12.908;2023-01-24T02:54:37;6.70;99.90
33093;DHT22;19456;46.104;12.908;2023-01-24T02:57:03;6.70;99.90
33093;DHT22;19456;46.104;12.908;2023-01-24T02:59:47;6.70;99.90
33093;DHT22;19456;46.104;12.908;2023-01-24T03:02:12;6.80;99.90
33093;DHT22;19456;46.104;12.908;2023-01-24T03:04:38;6.70;99.90
33093;DHT22;19456;46.104;12.908;2023-01-24T03:07:04;6.60;99.90
33093;DHT22;19456;46.104;12.908;2023-01-24T03:09:29;6.60;99.90
33093;DHT22;19456;46.104;12.908;2023-01-24T03:12:03;6.50;99.90
33093;DHT22;19456;46.104;12.908;2023-01-24T03:14:48;6.50;99.90
33093;DHT22;19456;46.104;12.908;2023-01-24T03:17:32;6.60;99.90
33093;DHT22;19456;46.104;12.908;2023-01-24T03:20:17;6.80;99.90
33093;DHT22;19456;46.104;12.908;2023-01-24T03:23:01;6.90;99.90
33093;DHT22;19456;46.104;12.908;2023-01-24T03:25:45;7.00;99.90
33093;DHT22;19456;46.104;12.908;2023-01-24T03:28:29;6.90;99.90
33093;DHT22;19456;46.104;12.908;2023-01-24T03:31:16;6.90;99.90
33093;DHT22;19456;46.104;12.908;2023-01-24T03:34:00;6.90;99.90
33093;DHT22;19456;46.104;12.908;2023-01-24T03:36:44;7.00;99.90
33093;DHT22;19456;46.104;12.908;2023-01-24T03:39:10;7.10;99.90
33093;DHT22;19456;46.104;12.908;2023-01-24T03:41:54;7.10;99.90
33093;DHT22;19456;46.104;12.908;2023-01-24T03:44:20;6.70;99.90
33093;DHT22;19456;46.104;12.908;2023-01-24T03:46:46;6.40;99.90
33093;DHT22;19456;46.104;12.908;2023-01-24T03:49:12;6.10;99.90
33093;DHT22;19456;46.104;12.908;2023-01-24T03:51:38;6.10;99.90
33093;DHT22;19456;46.104;12.908;2023-01-24T03:54:22;6.20;99.90
33093;DHT22;19456;46.104;12.908;2023-01-24T03:56:48;6.10;99.90
33093;DHT22;19456;46.104;12.908;2023-01-24T03:59:13;6.10;99.90
33093;DHT22;19456;46.104;12.908;2023-01-24T04:01:39;6.00;99.90
33093;DHT22;19456;46.104;12.908;2023-01-24T04:04:04;5.90;99.90
33093;DHT22;19456;46.104;12.908;2023-01-24T04:06:31;6.00;99.90
33093;DHT22;19456;46.104;12.908;2023-01-24T04:08:57;6.10;99.90
33093;DHT22;19456;46.104;12.908;2023-01-24T04:11:22;6.00;99.90
33093;DHT22;19456;46.104;12.908;2023-01-24T04:13:48;5.90;99.90
33093;DHT22;19456;46.104;12.908;2023-01-24T04:16:13;5.80;99.90
33093;DHT22;19456;46.104;12.908;2023-01-24T04:18:40;5.80;99.90
33093;DHT22;19456;46.104;12.908;2023-01-24T04:21:05;5.80;99.90
33093;DHT22;19456;46.104;12.908;2023-01-24T04:23:31;5.80;99.90
33093;DHT22;19456;46.104;12.908;2023-01-24T04:25:57;5.80;99.90
33093;DHT22;19456;46.104;12.908;2023-01-24T04:28:24;5.80;99.90
33093;DHT22;19456;46.104;12.908;2023-01-24T04:31:00;5.70;99.90
33093;DHT22;19456;46.104;12.908;2023-01-24T04:33:26;5.90;99.90
33093;DHT22;19456;46.104;12.908;2023-01-24T04:35:55;5.80;99.90
33093;DHT22;19456;46.104;12.908;2023-01-24T04:38:21;5.80;99.90
33093;DHT22;19456;46.104;12.908;2023-01-24T04:40:46;5.70;99.90
33093;DHT22;19456;46.104;12.908;2023-01-24T04:43:12;5.80;99.90
33093;DHT22;19456;46.104;12.908;2023-01-24T04:45:38;5.90;99.90
33093;DHT22;19456;46.104;12.908;2023-01-24T04:48:03;6.10;99.90
33093;DHT22;19456;46.104;12.908;2023-01-24T04:50:29;6.00;99.90
33093;DHT22;19456;46.104;12.908;2023-01-24T04:52:54;5.80;99.90
33093;DHT22;19456;46.104;12.908;2023-01-24T04:55:20;5.80;99.90
33093;DHT22;19456;46.104;12.908;2023-01-24T04:57:45;5.80;99.90
33093;DHT22;19456;46.104;12.908;2023-01-24T05:00:11;5.90;99.90
33093;DHT22;19456;46.104;12.908;2023-01-24T05:02:37;5.60;99.90
33093;DHT22;19456;46.104;12.908;2023-01-24T05:05:03;5.70;99.90
33093;DHT22;19456;46.104;12.908;2023-01-24T05:07:29;5.70;99.90
33093;DHT22;19456;46.104;12.908;2023-01-24T05:09:54;5.60;99.90
33093;DHT22;19456;46.104;12.908;2023-01-24T05:12:20;5.60;99.90
33093;DHT22;19456;46.104;12.908;2023-01-24T05:14:45;5.50;99.90
33093;DHT22;19456;46.104;12.908;2023-01-24T05:17:11;5.60;99.90
33093;DHT22;19456;46.104;12.908;2023-01-24T05:19:36;5.60;99.90
33093;DHT22;19456;46.104;12.908;2023-01-24T05:22:02;5.70;99.90
33093;DHT22;19456;46.104;12.908;2023-01-24T05:24:28;5.70;99.90
33093;DHT22;19456;46.104;12.908;2023-01-24T05:26:53;5.70;99.90
33093;DHT22;19456;46.104;12.908;2023-01-24T05:29:20;5.70;99.90
33093;DHT22;19456;46.104;12.908;2023-01-24T05:31:45;5.80;99.90
33093;DHT22;19456;46.104;12.908;2023-01-24T05:34:11;5.80;99.90
33093;DHT22;19456;46.104;12.908;2023-01-24T05:36:36;5.80;99.90
33093;DHT22;19456;46.104;12.908;2023-01-24T05:39:02;5.80;99.90
33093;DHT22;19456;46.104;12.908;2023-01-24T05:41:27;5.80;99.90
33093;DHT22;19456;46.104;12.908;2023-01-24T05:43:53;5.90;99.90
33093;DHT22;19456;46.104;12.908;2023-01-24T05:46:20;6.10;99.90
33093;DHT22;19456;46.104;12.908;2023-01-24T05:48:46;6.10;99.90
33093;DHT22;19456;46.104;12.908;2023-01-24T05:51:13;6.10;99.90
33093;DHT22;19456;46.104;12.908;2023-01-24T05:53:39;6.10;99.90
33093;DHT22;19456;46.104;12.908;2023-01-24T05:56:15;6.20;99.90
33093;DHT22;19456;46.104;12.908;2023-01-24T05:58:42;6.30;99.90
33093;DHT22;19456;46.104;12.908;2023-01-24T06:01:26;6.30;99.90
33093;DHT22;19456;46.104;12.908;2023-01-24T06:03:52;6.30;99.90
33093;DHT22;19456;46.104;12.908;2023-01-24T06:06:21;6.30;99.90
33093;DHT22;19456;46.104;12.908;2023-01-24T06:08:47;6.20;99.90
33093;DHT22;19456;46.104;12.908;2023-01-24T06:11:17;6.10;99.90
33093;DHT22;19456;46.104;12.908;2023-01-24T06:13:43;6.00;99.90
33093;DHT22;19456;46.104;12.908;2023-01-24T06:16:11;5.70;99.90
33093;DHT22;19456;46.104;12.908;2023-01-24T06:18:39;5.80;99.90
33093;DHT22;19456;46.104;12.908;2023-01-24T06:21:06;5.60;99.90
33093;DHT22;19456;46.104;12.908;2023-01-24T06:23:32;5.50;99.90
33093;DHT22;19456;46.104;12.908;2023-01-24T06:25:58;5.50;99.90
33093;DHT22;19456;46.104;12.908;2023-01-24T06:28:24;5.50;99.90
33093;DHT22;19456;46.104;12.908;2023-01-24T06:30:56;5.50;99.90
33093;DHT22;19456;46.104;12.908;2023-01-24T06:33:35;5.50;99.90
33093;DHT22;19456;46.104;12.908;2023-01-24T06:36:08;5.50;99.90
33093;DHT22;19456;46.104;12.908;2023-01-24T06:38:36;5.60;99.90
33093;DHT22;19456;46.104;12.908;2023-01-24T06:41:02;5.70;99.90
33093;DHT22;19456;46.104;12.908;2023-01-24T06:43:28;5.70;99.90
33093;DHT22;19456;46.104;12.908;2023-01-24T06:45:56;5.90;99.90
33093;DHT22;19456;46.104;12.908;2023-01-24T06:48:21;5.80;99.90
33093;DHT22;19456;46.104;12.908;2023-01-24T06:50:47;5.80;99.90
33093;DHT22;19456;46.104;12.908;2023-01-24T06:53:13;5.80;99.90
33093;DHT22;19456;46.104;12.908;2023-01-24T06:55:45;5.90;99.90
33093;DHT22;19456;46.104;12.908;2023-01-24T06:58:11;5.90;99.90
33093;DHT22;19456;46.104;12.908;2023-01-24T07:00:37;6.00;99.90
33093;DHT22;19456;46.104;12.908;2023-01-24T07:03:03;6.00;99.90
33093;DHT22;19456;46.104;12.908;2023-01-24T07:05:33;6.00;99.90
33093;DHT22;19456;46.104;12.908;2023-01-24T07:08:11;6.10;99.90
33093;DHT22;19456;46.104;12.908;2023-01-24T07:10:38;6.10;99.90
33093;DHT22;19456;46.104;12.908;2023-01-24T07:13:04;6.10;99.90
33093;DHT22;19456;46.104;12.908;2023-01-24T07:15:30;6.20;99.90
33093;DHT22;19456;46.104;12.908;2023-01-24T07:17:55;6.10;99.90
33093;DHT22;19456;46.104;12.908;2023-01-24T07:20:22;6.20;99.90
33093;DHT22;19456;46.104;12.908;2023-01-24T07:22:48;6.30;99.90
33093;DHT22;19456;46.104;12.908;2023-01-24T07:25:14;6.10;99.90
33093;DHT22;19456;46.104;12.908;2023-01-24T07:27:44;6.00;99.90
33093;DHT22;19456;46.104;12.908;2023-01-24T07:30:10;5.80;99.90
33093;DHT22;19456;46.104;12.908;2023-01-24T07:32:36;5.10;99.90
33093;DHT22;19456;46.104;12.908;2023-01-24T07:35:02;4.80;99.90
33093;DHT22;19456;46.104;12.908;2023-01-24T07:37:28;4.70;99.90
33093;DHT22;19456;46.104;12.908;2023-01-24T07:39:54;4.60;99.90
33093;DHT22;19456;46.104;12.908;2023-01-24T07:42:19;4.70;99.90
33093;DHT22;19456;46.104;12.908;2023-01-24T07:44:45;4.30;99.90
33093;DHT22;19456;46.104;12.908;2023-01-24T07:47:11;4.30;99.90
33093;DHT22;19456;46.104;12.908;2023-01-24T07:49:36;4.40;99.90
33093;DHT22;19456;46.104;12.908;2023-01-24T07:52:02;4.50;99.90
33093;DHT22;19456;46.104;12.908;2023-01-24T07:54:27;4.60;99.90
33093;DHT22;19456;46.104;12.908;2023-01-24T07:56:53;4.70;99.90
33093;DHT22;19456;46.104;12.908;2023-01-24T07:59:18;4.80;99.90
33093;DHT22;19456;46.104;12.908;2023-01-24T08:01:44;4.90;99.90
33093;DHT22;19456;46.104;12.908;2023-01-24T08:04:11;5.20;99.90
33093;DHT22;19456;46.104;12.908;2023-01-24T08:06:38;5.40;99.90
33093;DHT22;19456;46.104;12.908;2023-01-24T08:09:03;5.50;99.90
33093;DHT22;19456;46.104;12.908;2023-01-24T08:11:29;5.50;99.90
33093;DHT22;19456;46.104;12.908;2023-01-24T08:13:55;5.60;99.90
33093;DHT22;19456;46.104;12.908;2023-01-24T08:16:20;5.60;99.90
33093;DHT22;19456;46.104;12.908;2023-01-24T08:18:50;5.70;99.90
33093;DHT22;19456;46.104;12.908;2023-01-24T08:21:16;5.80;99.90
33093;DHT22;19456;46.104;12.908;2023-01-24T08:23:42;5.90;99.90
33093;DHT22;19456;46.104;12.908;2023-01-24T08:26:07;6.00;99.90
33093;DHT22;19456;46.104;12.908;2023-01-24T08:28:33;6.10;99.90
33093;DHT22;19456;46.104;12.908;2023-01-24T08:30:59;6.20;99.90
33093;DHT22;19456;46.104;12.908;2023-01-24T08:33:24;6.20;99.90
33093;DHT22;19456;46.104;12.908;2023-01-24T08:35:50;6.20;99.90
33093;DHT22;19456;46.104;12.908;2023-01-24T08:38:16;6.20;99.90
33093;DHT22;19456;46.104;12.908;2023-01-24T08:40:42;6.20;99.90
33093;DHT22;19456;46.104;12.908;2023-01-24T08:43:07;6.00;99.90
33093;DHT22;19456;46.104;12.908;2023-01-24T08:45:33;6.00;99.90
33093;DHT22;19456;46.104;12.908;2023-01-24T08:47:59;6.00;99.90
33093;DHT22;19456;46.104;12.908;2023-01-24T08:50:25;6.10;99.90
33093;DHT22;19456;46.104;12.908;2023-01-24T08:52:53;6.10;99.90
33093;DHT22;19456;46.104;12.908;2023-01-24T08:55:19;6.30;99.90
33093;DHT22;19456;46.104;12.908;2023-01-24T08:57:44;6.50;99.90
33093;DHT22;19456;46.104;12.908;2023-01-24T09:00:10;6.60;99.90
33093;DHT22;19456;46.104;12.908;2023-01-24T09:02:36;6.70;99.90
33093;DHT22;19456;46.104;12.908;2023-01-24T09:05:04;6.90;99.90
33093;DHT22;19456;46.104;12.908;2023-01-24T09:07:30;7.10;99.90
33093;DHT22;19456;46.104;12.908;2023-01-24T09:09:55;7.20;99.90
33093;DHT22;19456;46.104;12.908;2023-01-24T09:12:21;7.30;99.90
33093;DHT22;19456;46.104;12.908;2023-01-24T09:14:47;7.50;99.90
33093;DHT22;19456;46.104;12.908;2023-01-24T09:17:12;7.60;99.90
33093;DHT22;19456;46.104;12.908;2023-01-24T09:19:38;7.70;99.90
33093;DHT22;19456;46.104;12.908;2023-01-24T09:22:04;7.90;99.90
33093;DHT22;19456;46.104;12.908;2023-01-24T09:24:29;8.00;99.90
33093;DHT22;19456;46.104;12.908;2023-01-24T09:26:56;8.10;99.90
33093;DHT22;19456;46.104;12.908;2023-01-24T09:29:22;8.30;99.90
33093;DHT22;19456;46.104;12.908;2023-01-24T09:31:48;8.40;99.90
33093;DHT22;19456;46.104;12.908;2023-01-24T09:34:14;8.40;99.90
33093;DHT22;19456;46.104;12.908;2023-01-24T09:36:39;8.50;99.90
33093;DHT22;19456;46.104;12.908;2023-01-24T09:39:05;8.70;99.90
33093;DHT22;19456;46.104;12.908;2023-01-24T09:44:22;9.00;99.90
33093;DHT22;19456;46.104;12.908;2023-01-24T09:46:51;9.30;99.90
33093;DHT22;19456;46.104;12.908;2023-01-24T09:49:21;9.40;99.90
33093;DHT22;19456;46.104;12.908;2023-01-24T09:51:51;9.70;99.90
33093;DHT22;19456;46.104;12.908;2023-01-24T09:56:50;10.10;99.90
33093;DHT22;19456;46.104;12.908;2023-01-24T09:59:24;10.40;99.90
33093;DHT22;19456;46.104;12.908;2023-01-24T10:01:54;10.60;99.90
33093;DHT22;19456;46.104;12.908;2023-01-24T10:04:31;10.60;99.90
33093;DHT22;19456;46.104;12.908;2023-01-24T10:09:35;10.50;99.90
33093;DHT22;19456;46.104;12.908;2023-01-24T10:22:59;10.80;99.90
33093;DHT22;19456;46.104;12.908;2023-01-24T10:25:28;10.90;99.90
33093;DHT22;19456;46.104;12.908;2023-01-24T10:27:56;11.00;99.90
33093;DHT22;19456;46.104;12.908;2023-01-24T10:30:47;11.00;99.90
33093;DHT22;19456;46.104;12.908;2023-01-24T10:33:13;11.00;99.90
33093;DHT22;19456;46.104;12.908;2023-01-24T10:35:43;11.10;99.90
33093;DHT22;19456;46.104;12.908;2023-01-24T10:38:13;11.30;99.90
33093;DHT22;19456;46.104;12.908;2023-01-24T11:47:21;11.50;99.90
33093;DHT22;19456;46.104;12.908;2023-01-24T12:10:51;11.50;99.90
33093;DHT22;19456;46.104;12.908;2023-01-24T12:16:53;11.60;99.90
33093;DHT22;19456;46.104;12.908;2023-01-24T13:45:53;10.80;99.90
33093;DHT22;19456;46.104;12.908;2023-01-24T13:54:55;10.80;99.90
33093;DHT22;19456;46.104;12.908;2023-01-24T17:14:13;8.70;99.90
33093;DHT22;19456;46.104;12.908;2023-01-24T17:16:39;8.70;99.90
33093;DHT22;19456;46.104;12.908;2023-01-24T17:19:04;8.70;99.90
33093;DHT22;19456;46.104;12.908;2023-01-24T17:21:30;8.70;99.90
33093;DHT22;19456;46.104;12.908;2023-01-24T17:23:57;8.60;99.90
33093;DHT22;19456;46.104;12.908;2023-01-24T17:26:22;8.60;99.90
33093;DHT22;19456;46.104;12.908;2023-01-24T17:28:48;8.60;99.90
33093;DHT22;19456;46.104;12.908;2023-01-24T17:31:17;8.50;99.90
33093;DHT22;19456;46.104;12.908;2023-01-24T17:33:42;8.50;99.90
33093;DHT22;19456;46.104;12.908;2023-01-24T17:36:08;8.20;99.90
33093;DHT22;19456;46.104;12.908;2023-01-24T17:38:34;8.10;99.90
33093;DHT22;19456;46.104;12.908;2023-01-24T17:41:00;8.00;99.90
33093;DHT22;19456;46.104;12.908;2023-01-24T17:43:25;8.10;99.90
33093;DHT22;19456;46.104;12.908;2023-01-24T17:45:52;8.00;99.90
33093;DHT22;19456;46.104;12.908;2023-01-24T17:48:18;8.00;99.90
33093;DHT22;19456;46.104;12.908;2023-01-24T17:50:44;8.00;99.90
33093;DHT22;19456;46.104;12.908;2023-01-24T17:53:09;8.10;99.90
33093;DHT22;19456;46.104;12.908;2023-01-24T17:55:35;8.10;99.90
33093;DHT22;19456;46.104;12.908;2023-01-24T17:58:00;8.10;99.90
33093;DHT22;19456;46.104;12.908;2023-01-24T18:00:26;8.10;99.90
33093;DHT22;19456;46.104;12.908;2023-01-24T18:02:51;8.10;99.90
33093;DHT22;19456;46.104;12.908;2023-01-24T18:05:17;8.10;99.90
33093;DHT22;19456;46.104;12.908;2023-01-24T18:07:43;8.10;99.90
33093;DHT22;19456;46.104;12.908;2023-01-24T18:10:08;8.10;99.90
33093;DHT22;19456;46.104;12.908;2023-01-24T18:12:34;8.00;99.90
33093;DHT22;19456;46.104;12.908;2023-01-24T18:15:00;7.90;99.90
33093;DHT22;19456;46.104;12.908;2023-01-24T18:17:25;7.90;99.90
33093;DHT22;19456;46.104;12.908;2023-01-24T18:19:51;7.90;99.90
33093;DHT22;19456;46.104;12.908;2023-01-24T18:22:16;8.00;99.90
33093;DHT22;19456;46.104;12.908;2023-01-24T18:24:42;8.00;99.90
33093;DHT22;19456;46.104;12.908;2023-01-24T18:27:07;8.00;99.90
33093;DHT22;19456;46.104;12.908;2023-01-24T18:29:34;8.00;99.90
33093;DHT22;19456;46.104;12.908;2023-01-24T18:31:59;8.00;99.90
33093;DHT22;19456;46.104;12.908;2023-01-24T18:34:25;8.00;99.90
33093;DHT22;19456;46.104;12.908;2023-01-24T18:36:50;8.00;99.90
33093;DHT22;19456;46.104;12.908;2023-01-24T18:39:16;8.00;99.90
33093;DHT22;19456;46.104;12.908;2023-01-24T18:41:41;8.00;99.90
33093;DHT22;19456;46.104;12.908;2023-01-24T18:44:07;8.10;99.90
33093;DHT22;19456;46.104;12.908;2023-01-24T18:46:35;8.10;99.90
33093;DHT22;19456;46.104;12.908;2023-01-24T18:49:01;8.20;99.90
